Saint-Francois-Du-Lac, Canada
Current Conditions -  °F | °C
As of 10:00 AM on Wednesday 26 Nov 2014 (Local Time) from CYRQ Reporting Station
Broken Clouds Broken Clouds  
Wind Chill: 26°   Ceiling: 18000
Heat Index: 32°   Visibility: 9mi
Dew Point: 19°   Wind: 6mph
Humidity: 60%   Direction: 320°NW
Pressure: 30.26"   Gusts: NA
Location:  46.07°N, 72.83°W
Report Text: CYRQ 261500Z AUTO 32005KT 300V010 9SM BKN180 00/M07 A3026 RMK PRESRR SLP249
Loading
Personal Weather Stations






























Interactive Weather Map New forecast layout! Learn more

10-Day Weather Forecast

Advertisements
Track Severe Weather on mobile